This is the latest recevied weather packets stored in our database for station/object LEBL. If no packets are shown the sender has not sent any weather packets the latest 1 day(s).
| Time | Temp. | Humidity | Pressure | Rain* | Wind** | Luminosity | Snow |
|---|---|---|---|---|---|---|---|
| 1778117405 | 15° C | 76% | 1014 hPa | - | - | - | - |
| 1778116504 | 15° C | 76% | 1014 hPa | - | - | - | - |
| 1778114704 | 13.89° C | 76% | 1014 hPa | - | - | - | - |
| 1778113805 | 13.89° C | 76% | 1013 hPa | - | - | - | - |
| 1778107504 | 15° C | 76% | 1014 hPa | - | - | - | - |
| 1778095805 | 17.78° C | 63% | 1011 hPa | - | - | - | - |
| 1778089504 | 18.89° C | 55% | 1011 hPa | - | - | - | - |
| 1778087704 | 18.89° C | 55% | 1011 hPa | - | - | - | - |
| 1778083205 | 18.89° C | 48% | 1011 hPa | - | - | - | - |
| 1778067904 | 18.89° C | 42% | 1012 hPa | - | - | - | - |
| 1778062504 | 18.89° C | 45% | 1013 hPa | - | - | - | - |
| 1778059804 | 17.22° C | 55% | 1013 hPa | - | - | - | - |
| 1778058905 | 17.22° C | 55% | 1013 hPa | - | - | - | - |
| 1778058005 | 16.11° C | 55% | 1013 hPa | - | - | - | - |
| 1778053504 | 12.78° C | 71% | 1012 hPa | - | - | - | - |
| 1778050805 | 12.78° C | 71% | 1012 hPa | - | - | - | - |
| 1778049005 | 12.22° C | 81% | 1012 hPa | - | - | - | - |
| 1778046304 | 12.22° C | 81% | 1011 hPa | - | - | - | - |
| 1778045405 | 12.22° C | 81% | 1011 hPa | - | - | - | - |
| 1778040905 | 12.22° C | 87% | 1011 hPa | - | - | - | - |
| 1778037304 | 12.78° C | 82% | 1011 hPa | - | - | - | - |
| 1778032805 | 13.89° C | 82% | 1011 hPa | - | - | - | - |
* Rain since midnight (hover to see other rain measurements)
** Current wind speed in m/s (hover to see current wind gust speed)